Time;durP1;ratioP1;P1;durP2;ratioP2;P2;SDS_P1;SDS_P2;PMS_P1;PMS_P2;Temp;Humidity;BMP_temperature;BMP_pressure;BME280_temperature;BME280_humidity;BME280_pressure;Samples;Min_cycle;Max_cycle;Signal;HPM_P1;HPM_P2
2023/11/04 00:00:10;;;;;;;0.00;0.00;;;;;;;;;;5052379;28;20518;-69
2023/11/04 00:02:37;;;;;;;0.00;0.00;;;;;;;;;;5032759;28;20024;-69
2023/11/04 00:05:04;;;;;;;0.00;0.00;;;;;;;;;;5032684;28;20029;-69
2023/11/04 00:07:29;;;;;;;0.00;0.00;;;;;;;;;;5032600;28;20021;-69
2023/11/04 00:09:55;;;;;;;0.00;0.00;;;;;;;;;;5032579;28;20033;-69
2023/11/04 00:12:21;;;;;;;0.00;0.00;;;;;;;;;;5046339;28;20060;-69
2023/11/04 00:14:48;;;;;;;0.10;0.10;;;;;;;;;;5035787;28;20025;-69
2023/11/04 00:17:15;;;;;;;0.00;0.00;;;;;;;;;;5046761;28;20033;-69
2023/11/04 00:19:41;;;;;;;0.00;0.00;;;;;;;;;;5052489;28;20021;-69
2023/11/04 00:22:07;;;;;;;0.25;0.25;;;;;;;;;;5039217;28;20539;-69
2023/11/04 00:24:33;;;;;;;0.00;0.00;;;;;;;;;;5046551;28;20028;-69
2023/11/04 00:26:59;;;;;;;0.00;0.00;;;;;;;;;;5043250;28;20147;-69
2023/11/04 00:29:25;;;;;;;0.00;0.00;;;;;;;;;;5051930;28;20466;-69
2023/11/04 00:31:51;;;;;;;0.43;0.43;;;;;;;;;;5052055;28;20024;-69
2023/11/04 00:34:17;;;;;;;0.28;0.25;;;;;;;;;;5051804;28;20401;-69
2023/11/04 00:36:44;;;;;;;0.00;0.00;;;;;;;;;;5052174;28;20033;-69
2023/11/04 00:39:13;;;;;;;0.00;0.00;;;;;;;;;;5038865;28;20029;-69
2023/11/04 00:41:39;;;;;;;0.00;0.00;;;;;;;;;;5050133;28;20123;-69
2023/11/04 00:44:05;;;;;;;0.20;0.20;;;;;;;;;;5063345;28;20064;-69
2023/11/04 00:46:31;;;;;;;0.00;0.00;;;;;;;;;;5054282;28;20029;-69
2023/11/04 00:48:59;;;;;;;0.00;0.00;;;;;;;;;;5052035;28;20032;-69
2023/11/04 00:51:26;;;;;;;0.00;0.00;;;;;;;;;;5040020;28;20116;-69
2023/11/04 00:53:52;;;;;;;0.00;0.00;;;;;;;;;;5046019;28;20104;-69
2023/11/04 00:56:18;;;;;;;0.00;0.00;;;;;;;;;;5042283;28;20033;-69
2023/11/04 00:58:44;;;;;;;0.00;0.00;;;;;;;;;;5052139;28;20433;-69
2023/11/04 01:01:12;;;;;;;0.00;0.00;;;;;;;;;;5051622;28;20041;-69
2023/11/04 01:03:38;;;;;;;0.00;0.00;;;;;;;;;;5051829;28;20112;-69
2023/11/04 01:06:04;;;;;;;0.00;0.00;;;;;;;;;;5045222;28;20481;-69
2023/11/04 01:08:30;;;;;;;0.00;0.00;;;;;;;;;;5048159;28;20108;-69
2023/11/04 01:10:57;;;;;;;0.22;0.13;;;;;;;;;;5049791;28;20056;-69
2023/11/04 01:13:23;;;;;;;0.00;0.00;;;;;;;;;;5042675;28;20025;-69
2023/11/04 01:15:51;;;;;;;0.00;0.00;;;;;;;;;;5051771;28;20028;-69
2023/11/04 01:18:19;;;;;;;0.00;0.00;;;;;;;;;;5051680;28;20099;-69
2023/11/04 01:20:45;;;;;;;0.10;0.10;;;;;;;;;;5051567;28;20025;-69
2023/11/04 01:23:11;;;;;;;0.00;0.00;;;;;;;;;;5051678;28;20522;-69
2023/11/04 01:25:37;;;;;;;0.10;0.10;;;;;;;;;;5039121;28;20036;-69
2023/11/04 01:28:03;;;;;;;0.00;0.00;;;;;;;;;;5046285;28;20088;-69
2023/11/04 01:30:29;;;;;;;0.00;0.00;;;;;;;;;;5055301;28;20029;-69
2023/11/04 01:32:55;;;;;;;0.00;0.00;;;;;;;;;;5055265;28;20024;-69
2023/11/04 01:35:21;;;;;;;0.00;0.00;;;;;;;;;;5055302;28;20031;-69
2023/11/04 01:37:47;;;;;;;0.10;0.10;;;;;;;;;;5055152;28;20108;-69
2023/11/04 01:40:13;;;;;;;0.00;0.00;;;;;;;;;;5055028;28;20067;-69
2023/11/04 01:42:43;;;;;;;0.00;0.00;;;;;;;;;;5055345;28;20025;-69
2023/11/04 01:45:10;;;;;;;0.00;0.00;;;;;;;;;;5048323;28;20067;-69
2023/11/04 01:47:37;;;;;;;0.00;0.00;;;;;;;;;;5050425;28;20480;-69
2023/11/04 01:50:03;;;;;;;0.00;0.00;;;;;;;;;;5051261;28;20020;-69
2023/11/04 01:52:29;;;;;;;0.00;0.00;;;;;;;;;;5044249;28;20071;-68
2023/11/04 01:54:55;;;;;;;0.00;0.00;;;;;;;;;;5053624;28;20117;-69
2023/11/04 01:57:22;;;;;;;0.00;0.00;;;;;;;;;;5050549;28;20036;-69
2023/11/04 01:59:48;;;;;;;0.00;0.00;;;;;;;;;;5040597;28;20096;-69
2023/11/04 02:02:16;;;;;;;1.08;1.08;;;;;;;;;;5043047;28;20040;-69
2023/11/04 02:04:42;;;;;;;0.00;0.00;;;;;;;;;;5046974;28;20020;-69
2023/11/04 02:07:08;;;;;;;0.10;0.10;;;;;;;;;;5053949;28;20496;-69
2023/11/04 02:09:34;;;;;;;0.00;0.00;;;;;;;;;;5052637;28;20504;-69
2023/11/04 02:12:02;;;;;;;0.00;0.00;;;;;;;;;;5054638;28;20058;-69
2023/11/04 02:14:28;;;;;;;0.00;0.00;;;;;;;;;;5054659;28;20028;-69
2023/11/04 02:16:54;;;;;;;0.00;0.00;;;;;;;;;;5054439;28;20386;-69
2023/11/04 02:19:20;;;;;;;0.00;0.00;;;;;;;;;;5054630;28;20021;-69
2023/11/04 02:24:49;;;;;;;0.00;0.00;;;;;;;;;;5054170;28;20567;-69
2023/11/04 02:27:15;;;;;;;0.00;0.00;;;;;;;;;;5039403;28;20026;-69
2023/11/04 02:32:51;;;;;;;0.00;0.00;;;;;;;;;;5037953;28;20039;-69
2023/11/04 02:35:18;;;;;;;0.00;0.00;;;;;;;;;;5042051;28;20026;-69
2023/11/04 02:37:44;;;;;;;0.00;0.00;;;;;;;;;;5047368;28;20029;-69
2023/11/04 02:40:10;;;;;;;0.00;0.00;;;;;;;;;;5043254;28;20536;-69
2023/11/04 02:42:36;;;;;;;0.00;0.00;;;;;;;;;;5047082;28;20036;-69
2023/11/04 02:45:03;;;;;;;0.00;0.00;;;;;;;;;;5052796;28;20041;-69
2023/11/04 02:47:29;;;;;;;0.00;0.00;;;;;;;;;;5052244;28;20029;-69
2023/11/04 02:49:55;;;;;;;0.00;0.00;;;;;;;;;;5053586;28;20052;-69
2023/11/04 02:52:21;;;;;;;0.00;0.00;;;;;;;;;;5039882;28;20065;-69
2023/11/04 02:54:47;;;;;;;0.00;0.00;;;;;;;;;;5038538;28;20036;-69
2023/11/04 02:57:13;;;;;;;0.00;0.00;;;;;;;;;;5044458;28;20025;-69
2023/11/04 02:59:40;;;;;;;0.00;0.00;;;;;;;;;;5054067;28;20029;-69
2023/11/04 03:02:06;;;;;;;0.00;0.00;;;;;;;;;;5047390;28;20044;-69
2023/11/04 03:04:34;;;;;;;0.00;0.00;;;;;;;;;;5053068;28;20082;-69
2023/11/04 03:07:00;;;;;;;0.00;0.00;;;;;;;;;;5045367;28;20109;-69
2023/11/04 03:09:26;;;;;;;0.00;0.00;;;;;;;;;;5047835;28;20033;-69
2023/11/04 03:11:54;;;;;;;0.00;0.00;;;;;;;;;;5039560;28;20040;-69
2023/11/04 03:14:20;;;;;;;0.00;0.00;;;;;;;;;;5045700;28;20386;-69
2023/11/04 03:16:46;;;;;;;0.00;0.00;;;;;;;;;;5047666;28;20108;-69
2023/11/04 03:19:21;;;;;;;0.00;0.00;;;;;;;;;;5051276;28;20098;-69
2023/11/04 03:21:47;;;;;;;0.00;0.00;;;;;;;;;;5047440;28;20039;-69
2023/11/04 03:24:13;;;;;;;0.00;0.00;;;;;;;;;;5050844;28;20537;-69
2023/11/04 03:26:39;;;;;;;0.00;0.00;;;;;;;;;;5044830;28;20021;-68
2023/11/04 03:29:05;;;;;;;0.00;0.00;;;;;;;;;;5051756;28;20032;-69
2023/11/04 03:31:31;;;;;;;0.10;0.10;;;;;;;;;;5048350;28;20490;-69
2023/11/04 03:33:58;;;;;;;0.00;0.00;;;;;;;;;;5046662;28;20021;-69
2023/11/04 03:36:27;;;;;;;0.00;0.00;;;;;;;;;;5050871;28;20098;-69
2023/11/04 03:38:53;;;;;;;0.00;0.00;;;;;;;;;;5036283;28;20033;-68
2023/11/04 03:41:19;;;;;;;0.00;0.00;;;;;;;;;;5050326;28;20052;-68
2023/11/04 03:43:45;;;;;;;0.00;0.00;;;;;;;;;;5048239;28;20104;-69
2023/11/04 03:46:11;;;;;;;0.00;0.00;;;;;;;;;;5051553;28;20148;-69
2023/11/04 03:48:37;;;;;;;0.00;0.00;;;;;;;;;;5052644;28;20130;-69
2023/11/04 03:51:04;;;;;;;0.00;0.00;;;;;;;;;;5052125;28;20542;-69
2023/11/04 03:53:30;;;;;;;0.00;0.00;;;;;;;;;;5054118;28;20036;-69
2023/11/04 03:55:56;;;;;;;0.00;0.00;;;;;;;;;;5052597;28;20021;-69
2023/11/04 03:58:22;;;;;;;0.00;0.00;;;;;;;;;;5052705;28;20025;-69
2023/11/04 04:00:49;;;;;;;0.10;0.10;;;;;;;;;;5052169;28;20466;-68
2023/11/04 04:03:15;;;;;;;0.00;0.00;;;;;;;;;;5052863;28;20086;-68
2023/11/04 04:05:41;;;;;;;0.00;0.00;;;;;;;;;;5052482;28;20051;-68
2023/11/04 04:08:07;;;;;;;0.00;0.00;;;;;;;;;;5052406;28;20420;-69
2023/11/04 04:10:33;;;;;;;0.00;0.00;;;;;;;;;;5052438;28;20063;-68
2023/11/04 04:12:59;;;;;;;0.00;0.00;;;;;;;;;;5052315;28;20041;-68
2023/11/04 04:15:25;;;;;;;0.00;0.00;;;;;;;;;;5051040;28;20021;-68
2023/11/04 04:17:51;;;;;;;0.00;0.00;;;;;;;;;;5052624;28;20033;-68
2023/11/04 04:20:17;;;;;;;0.00;0.00;;;;;;;;;;5052002;28;20484;-68
2023/11/04 04:22:43;;;;;;;0.00;0.00;;;;;;;;;;5052236;28;20036;-68
2023/11/04 04:25:09;;;;;;;0.00;0.00;;;;;;;;;;5052364;28;20021;-68
2023/11/04 04:27:36;;;;;;;0.00;0.00;;;;;;;;;;5052065;28;20052;-68
2023/11/04 04:30:02;;;;;;;0.00;0.00;;;;;;;;;;5050701;28;20063;-68
2023/11/04 04:32:28;;;;;;;0.00;0.00;;;;;;;;;;5052054;28;20029;-68
2023/11/04 04:34:54;;;;;;;0.13;0.13;;;;;;;;;;5052473;28;20036;-68
2023/11/04 04:37:20;;;;;;;0.00;0.00;;;;;;;;;;5041422;28;20436;-68
2023/11/04 04:39:46;;;;;;;0.00;0.00;;;;;;;;;;5051966;28;20123;-68
2023/11/04 04:42:12;;;;;;;0.00;0.00;;;;;;;;;;5041995;28;20543;-68
2023/11/04 04:44:38;;;;;;;0.00;0.00;;;;;;;;;;5046526;28;20022;-68
2023/11/04 04:47:04;;;;;;;0.00;0.00;;;;;;;;;;5052055;28;20025;-69
2023/11/04 04:49:30;;;;;;;0.00;0.00;;;;;;;;;;5051980;28;20028;-69
2023/11/04 04:51:56;;;;;;;0.00;0.00;;;;;;;;;;5046141;28;20029;-68
2023/11/04 04:54:22;;;;;;;0.00;0.00;;;;;;;;;;5038489;28;20083;-69
2023/11/04 04:56:49;;;;;;;0.00;0.00;;;;;;;;;;5052004;28;20025;-68
2023/11/04 04:59:15;;;;;;;0.00;0.00;;;;;;;;;;5051640;28;20010;-68
2023/11/04 05:01:41;;;;;;;0.00;0.00;;;;;;;;;;5051764;28;20385;-68
2023/11/04 05:04:08;;;;;;;0.00;0.00;;;;;;;;;;5055820;28;20013;-68
2023/11/04 05:06:34;;;;;;;0.00;0.00;;;;;;;;;;5056289;28;20370;-68
2023/11/04 05:09:00;;;;;;;0.00;0.00;;;;;;;;;;5055654;28;20033;-68
2023/11/04 05:11:26;;;;;;;0.00;0.00;;;;;;;;;;5056547;28;20083;-68
2023/11/04 05:13:52;;;;;;;0.00;0.00;;;;;;;;;;5055732;28;20472;-68
2023/11/04 05:16:18;;;;;;;0.00;0.00;;;;;;;;;;5055742;28;20036;-68
2023/11/04 05:18:45;;;;;;;0.00;0.00;;;;;;;;;;5055647;28;20017;-68
2023/11/04 05:21:11;;;;;;;0.00;0.00;;;;;;;;;;5055505;28;20029;-68
2023/11/04 05:23:37;;;;;;;0.00;0.00;;;;;;;;;;5055179;28;20468;-68
2023/11/04 05:26:03;;;;;;;0.00;0.00;;;;;;;;;;5055362;28;20134;-68
2023/11/04 05:28:31;;;;;;;0.00;0.00;;;;;;;;;;5055382;28;20021;-68
2023/11/04 05:30:57;;;;;;;0.20;0.20;;;;;;;;;;5055330;28;20108;-68
2023/11/04 05:33:25;;;;;;;0.00;0.00;;;;;;;;;;5055260;28;20398;-68
2023/11/04 05:35:51;;;;;;;0.40;0.40;;;;;;;;;;5055410;28;20215;-68
2023/11/04 05:38:17;;;;;;;0.00;0.00;;;;;;;;;;5054738;28;20032;-68
2023/11/04 05:40:44;;;;;;;0.00;0.00;;;;;;;;;;5054626;28;20086;-68
2023/11/04 05:43:10;;;;;;;0.00;0.00;;;;;;;;;;5055259;28;20477;-68
2023/11/04 05:45:35;;;;;;;0.00;0.00;;;;;;;;;;5053241;28;20048;-68
2023/11/04 05:48:01;;;;;;;0.00;0.00;;;;;;;;;;5050226;28;20025;-68
2023/11/04 05:50:27;;;;;;;0.25;0.25;;;;;;;;;;5054982;28;20029;-68
2023/11/04 05:52:53;;;;;;;0.05;0.05;;;;;;;;;;5055152;28;20385;-68
2023/11/04 05:55:19;;;;;;;0.00;0.00;;;;;;;;;;5053672;28;20021;-68
2023/11/04 05:57:45;;;;;;;0.00;0.00;;;;;;;;;;5040823;28;20079;-68
2023/11/04 06:00:12;;;;;;;0.00;0.00;;;;;;;;;;5054635;28;20028;-68
2023/11/04 06:02:38;;;;;;;0.00;0.00;;;;;;;;;;5046806;28;20398;-68
2023/11/04 06:05:06;;;;;;;0.00;0.00;;;;;;;;;;5049146;28;20472;-68
2023/11/04 06:07:33;;;;;;;0.05;0.05;;;;;;;;;;5044413;28;20090;-68
2023/11/04 06:09:59;;;;;;;0.00;0.00;;;;;;;;;;5050722;28;20514;-68
2023/11/04 06:12:25;;;;;;;0.00;0.00;;;;;;;;;;5054068;28;20107;-68
2023/11/04 06:14:51;;;;;;;0.00;0.00;;;;;;;;;;5040239;28;20103;-68
2023/11/04 06:17:17;;;;;;;0.00;0.00;;;;;;;;;;5043922;28;20025;-68
2023/11/04 06:19:43;;;;;;;0.17;0.17;;;;;;;;;;5054671;28;20028;-68
2023/11/04 06:22:09;;;;;;;0.00;0.00;;;;;;;;;;5054226;28;20497;-68
2023/11/04 06:24:38;;;;;;;0.00;0.00;;;;;;;;;;5054301;28;20115;-68
2023/11/04 06:27:04;;;;;;;0.10;0.10;;;;;;;;;;5052636;28;20369;-68
2023/11/04 06:29:30;;;;;;;0.00;0.00;;;;;;;;;;5054058;28;20474;-68
2023/11/04 06:31:56;;;;;;;0.00;0.00;;;;;;;;;;5054066;28;20051;-68
2023/11/04 06:34:22;;;;;;;0.00;0.00;;;;;;;;;;5044601;28;20352;-68
2023/11/04 06:36:48;;;;;;;0.00;0.00;;;;;;;;;;5050258;28;20059;-68
2023/11/04 06:39:14;;;;;;;0.00;0.00;;;;;;;;;;5054011;28;20465;-68
2023/11/04 06:41:40;;;;;;;0.00;0.00;;;;;;;;;;5051342;28;20052;-68
2023/11/04 06:44:07;;;;;;;0.00;0.00;;;;;;;;;;5048445;28;20029;-68
2023/11/04 06:46:33;;;;;;;0.00;0.00;;;;;;;;;;5041222;28;20041;-68
2023/11/04 06:48:59;;;;;;;0.00;0.00;;;;;;;;;;5032513;28;20026;-68
2023/11/04 06:51:26;;;;;;;0.00;0.00;;;;;;;;;;5042531;28;20032;-68
2023/11/04 06:53:55;;;;;;;0.00;0.00;;;;;;;;;;5040440;28;20022;-69
2023/11/04 06:56:24;;;;;;;0.00;0.00;;;;;;;;;;5040483;28;20030;-69
2023/11/04 06:58:50;;;;;;;0.00;0.00;;;;;;;;;;5034478;28;20029;-68
2023/11/04 07:01:17;;;;;;;0.10;0.10;;;;;;;;;;5045047;28;20064;-68
2023/11/04 07:03:45;;;;;;;0.00;0.00;;;;;;;;;;5043406;28;20017;-68
2023/11/04 07:06:14;;;;;;;0.00;0.00;;;;;;;;;;5042541;28;20541;-68
2023/11/04 07:08:42;;;;;;;0.15;0.15;;;;;;;;;;5033342;28;20113;-69
2023/11/04 07:11:09;;;;;;;0.00;0.00;;;;;;;;;;5036389;28;20047;-68
2023/11/04 07:13:35;;;;;;;0.00;0.00;;;;;;;;;;5061369;28;20410;-68
2023/11/04 07:16:01;;;;;;;0.05;0.05;;;;;;;;;;5038248;28;20455;-68
2023/11/04 07:18:27;;;;;;;0.00;0.00;;;;;;;;;;5044615;28;20055;-68
2023/11/04 07:20:56;;;;;;;0.00;0.00;;;;;;;;;;5044715;28;20033;-68
2023/11/04 07:23:22;;;;;;;0.00;0.00;;;;;;;;;;5044255;28;20021;-68
2023/11/04 07:25:48;;;;;;;0.00;0.00;;;;;;;;;;5050696;28;20411;-68
2023/11/04 07:28:14;;;;;;;0.00;0.00;;;;;;;;;;5047534;28;20486;-69
2023/11/04 07:30:40;;;;;;;0.00;0.00;;;;;;;;;;5039641;28;20021;-68
2023/11/04 07:33:06;;;;;;;0.00;0.00;;;;;;;;;;5042829;28;20028;-68
2023/11/04 07:35:32;;;;;;;0.00;0.00;;;;;;;;;;5040683;28;20462;-68
2023/11/04 07:37:58;;;;;;;0.00;0.00;;;;;;;;;;5038027;28;20026;-68
2023/11/04 07:40:25;;;;;;;0.00;0.00;;;;;;;;;;5052690;28;20150;-68
2023/11/04 07:42:51;;;;;;;0.00;0.00;;;;;;;;;;5040953;28;20478;-68
2023/11/04 07:45:17;;;;;;;0.00;0.00;;;;;;;;;;5038545;28;20029;-68
2023/11/04 07:47:43;;;;;;;0.00;0.00;;;;;;;;;;5040021;28;20099;-68
2023/11/04 07:50:10;;;;;;;0.52;0.52;;;;;;;;;;5048112;28;20486;-68
2023/11/04 07:52:36;;;;;;;0.00;0.00;;;;;;;;;;5042050;28;20427;-68
2023/11/04 07:55:02;;;;;;;0.00;0.00;;;;;;;;;;5052645;28;20092;-68
2023/11/04 07:57:28;;;;;;;0.28;0.28;;;;;;;;;;5040953;28;20020;-68
2023/11/04 07:59:54;;;;;;;0.00;0.00;;;;;;;;;;5048280;28;20094;-68
2023/11/04 08:02:20;;;;;;;0.00;0.00;;;;;;;;;;5043148;28;20117;-68
2023/11/04 08:04:46;;;;;;;0.00;0.00;;;;;;;;;;5045494;28;20024;-68
2023/11/04 08:07:12;;;;;;;0.00;0.00;;;;;;;;;;5047483;28;20025;-68
2023/11/04 08:09:41;;;;;;;0.10;0.10;;;;;;;;;;5035107;28;20590;-68
2023/11/04 08:12:07;;;;;;;0.10;0.10;;;;;;;;;;5043856;28;20025;-68
2023/11/04 08:14:33;;;;;;;0.00;0.00;;;;;;;;;;5033477;28;20026;-68
2023/11/04 08:16:59;;;;;;;0.00;0.00;;;;;;;;;;5049991;28;20021;-68
2023/11/04 08:19:25;;;;;;;0.30;0.30;;;;;;;;;;5040851;28;20124;-68
2023/11/04 08:21:51;;;;;;;0.00;0.00;;;;;;;;;;5045429;28;20492;-68
2023/11/04 08:24:17;;;;;;;0.00;0.00;;;;;;;;;;5040564;28;20022;-62
2023/11/04 08:26:43;;;;;;;0.00;0.00;;;;;;;;;;5041583;28;20100;-62
2023/11/04 08:29:09;;;;;;;0.00;0.00;;;;;;;;;;5051161;28;20021;-62
2023/11/04 08:31:35;;;;;;;0.00;0.00;;;;;;;;;;5040332;28;20051;-59
2023/11/04 08:34:02;;;;;;;0.15;0.13;;;;;;;;;;5043899;28;20029;-63
2023/11/04 08:36:28;;;;;;;0.00;0.00;;;;;;;;;;5049906;28;20013;-63
2023/11/04 08:38:54;;;;;;;0.00;0.00;;;;;;;;;;5047975;28;20037;-63
2023/11/04 08:41:20;;;;;;;0.00;0.00;;;;;;;;;;5043997;28;20053;-63
2023/11/04 08:43:46;;;;;;;0.00;0.00;;;;;;;;;;5041545;28;20084;-63
2023/11/04 08:46:18;;;;;;;0.00;0.00;;;;;;;;;;5051280;28;20025;-63
2023/11/04 08:48:44;;;;;;;5.50;3.45;;;;;;;;;;5051291;28;20032;-63
2023/11/04 08:51:10;;;;;;;4.97;3.83;;;;;;;;;;5047513;28;20033;-63
2023/11/04 08:53:36;;;;;;;9.13;4.63;;;;;;;;;;5051510;28;20032;-62
2023/11/04 08:56:03;;;;;;;3.60;3.30;;;;;;;;;;5051412;28;20511;-63
2023/11/04 08:58:29;;;;;;;4.38;3.00;;;;;;;;;;5055181;28;20493;-62
2023/11/04 09:00:55;;;;;;;4.40;2.65;;;;;;;;;;5047460;28;20463;-62
2023/11/04 09:03:23;;;;;;;3.90;2.35;;;;;;;;;;5046647;28;20465;-62
2023/11/04 09:05:49;;;;;;;7.32;3.50;;;;;;;;;;5045338;28;20040;-62
2023/11/04 09:08:15;;;;;;;4.47;2.83;;;;;;;;;;5051323;28;20075;-62
2023/11/04 09:10:42;;;;;;;3.70;2.20;;;;;;;;;;5050182;28;20033;-62
2023/11/04 09:13:08;;;;;;;4.20;2.50;;;;;;;;;;5057512;28;20024;-62
2023/11/04 09:15:34;;;;;;;5.50;2.95;;;;;;;;;;5044444;28;20032;-63
2023/11/04 09:18:04;;;;;;;8.80;3.55;;;;;;;;;;5051312;28;20102;-63
2023/11/04 09:20:30;;;;;;;4.18;2.45;;;;;;;;;;5042249;28;20032;-63
2023/11/04 09:22:56;;;;;;;5.43;2.08;;;;;;;;;;5051006;28;20041;-63
2023/11/04 09:25:22;;;;;;;4.43;2.15;;;;;;;;;;5049092;28;20027;-63
2023/11/04 09:27:49;;;;;;;4.15;2.05;;;;;;;;;;5050274;28;20025;-63
2023/11/04 09:30:16;;;;;;;3.78;2.08;;;;;;;;;;5050497;28;20017;-63
2023/11/04 09:32:42;;;;;;;4.43;2.00;;;;;;;;;;5051166;28;20024;-63
2023/11/04 09:35:12;;;;;;;3.67;2.45;;;;;;;;;;5051026;28;20104;-63
2023/11/04 09:37:38;;;;;;;5.32;2.85;;;;;;;;;;5047943;28;20029;-63
2023/11/04 09:40:04;;;;;;;3.13;2.53;;;;;;;;;;5048173;28;20041;-63
2023/11/04 09:42:30;;;;;;;5.63;2.58;;;;;;;;;;5050809;28;20037;-63
2023/11/04 09:44:57;;;;;;;3.38;2.30;;;;;;;;;;5041225;28;20018;-63
2023/11/04 09:47:23;;;;;;;3.50;2.40;;;;;;;;;;5051086;28;20067;-63
2023/11/04 09:49:49;;;;;;;5.32;2.88;;;;;;;;;;5054409;28;20053;-63
2023/11/04 09:52:16;;;;;;;31.23;5.00;;;;;;;;;;5053232;28;20514;-63
2023/11/04 09:54:46;;;;;;;3.97;2.28;;;;;;;;;;5054639;28;20027;-63
2023/11/04 09:57:12;;;;;;;10.23;3.20;;;;;;;;;;5054828;28;20393;-63
2023/11/04 09:59:39;;;;;;;3.83;3.08;;;;;;;;;;5054248;28;20086;-63
2023/11/04 10:02:05;;;;;;;3.90;2.08;;;;;;;;;;5053862;28;20045;-64
2023/11/04 10:04:31;;;;;;;4.25;1.65;;;;;;;;;;5053469;28;20534;-63
2023/11/04 10:06:57;;;;;;;4.68;2.33;;;;;;;;;;5054089;28;20072;-63
2023/11/04 10:09:23;;;;;;;3.70;2.20;;;;;;;;;;5054045;28;20048;-63
2023/11/04 10:11:50;;;;;;;6.32;2.85;;;;;;;;;;5053975;28;20097;-63
2023/11/04 10:14:16;;;;;;;5.35;3.13;;;;;;;;;;5053717;28;20029;-63
2023/11/04 10:16:42;;;;;;;6.00;2.78;;;;;;;;;;5047940;28;20100;-63
2023/11/04 10:19:08;;;;;;;5.45;2.60;;;;;;;;;;5054386;28;20028;-63
2023/11/04 10:21:34;;;;;;;7.50;2.97;;;;;;;;;;5053363;28;20123;-63
2023/11/04 10:24:01;;;;;;;5.05;2.03;;;;;;;;;;5052653;28;20074;-63
2023/11/04 10:26:27;;;;;;;4.25;2.20;;;;;;;;;;5048875;28;20487;-64
2023/11/04 10:28:54;;;;;;;2.35;1.92;;;;;;;;;;5048280;28;20029;-63
2023/11/04 10:31:22;;;;;;;5.53;2.47;;;;;;;;;;5047909;28;20389;-64
2023/11/04 10:33:48;;;;;;;5.70;3.25;;;;;;;;;;5049371;28;20017;-64
2023/11/04 10:36:17;;;;;;;4.00;2.72;;;;;;;;;;5052529;28;20036;-64
2023/11/04 10:38:44;;;;;;;5.57;2.55;;;;;;;;;;5052403;28;20208;-64
2023/11/04 10:41:10;;;;;;;5.97;2.28;;;;;;;;;;5053214;28;20060;-64
2023/11/04 10:43:41;;;;;;;3.85;2.30;;;;;;;;;;5053042;28;20024;-64
2023/11/04 10:46:17;;;;;;;2.22;1.13;;;;;;;;;;5053754;28;20027;-64
2023/11/04 10:48:51;;;;;;;3.05;1.50;;;;;;;;;;5053726;28;20017;-64
2023/11/04 10:51:18;;;;;;;2.95;1.95;;;;;;;;;;5053531;28;20025;-64
2023/11/04 10:53:53;;;;;;;4.65;1.83;;;;;;;;;;5053646;28;20414;-64
2023/11/04 10:56:39;;;;;;;3.08;2.40;;;;;;;;;;5051199;28;20080;-63
2023/11/04 10:59:07;;;;;;;3.47;2.58;;;;;;;;;;5052960;28;20032;-63
2023/11/04 11:01:35;;;;;;;4.35;2.35;;;;;;;;;;5053214;28;20029;-63
2023/11/04 11:04:02;;;;;;;2.70;2.40;;;;;;;;;;5052976;28;20025;-64
2023/11/04 11:06:29;;;;;;;5.22;2.47;;;;;;;;;;5053148;28;20040;-64
2023/11/04 11:08:56;;;;;;;4.45;1.80;;;;;;;;;;5041484;28;20045;-64
2023/11/04 11:11:33;;;;;;;3.70;1.80;;;;;;;;;;5053043;28;20078;-64
2023/11/04 11:13:59;;;;;;;3.45;1.48;;;;;;;;;;5040434;28;20019;-64
2023/11/04 11:16:25;;;;;;;3.78;1.92;;;;;;;;;;5053165;28;20036;-64
2023/11/04 11:18:52;;;;;;;3.05;2.13;;;;;;;;;;5053037;28;20013;-64
2023/11/04 11:21:21;;;;;;;3.90;1.95;;;;;;;;;;5052669;28;20033;-64
2023/11/04 11:23:47;;;;;;;4.30;2.20;;;;;;;;;;5039989;28;20029;-64
2023/11/04 11:26:14;;;;;;;2.47;1.85;;;;;;;;;;5045086;28;20463;-64
2023/11/04 11:28:41;;;;;;;2.17;1.95;;;;;;;;;;5052711;28;20044;-64
2023/11/04 11:31:11;;;;;;;3.38;2.30;;;;;;;;;;5052692;28;20462;-64
2023/11/04 11:33:38;;;;;;;4.47;1.98;;;;;;;;;;5052856;28;20017;-64
2023/11/04 11:36:06;;;;;;;3.65;2.80;;;;;;;;;;5041241;28;20021;-64
2023/11/04 11:38:33;;;;;;;3.25;2.83;;;;;;;;;;5049485;28;20028;-63
2023/11/04 11:41:03;;;;;;;4.30;2.40;;;;;;;;;;5052560;28;20088;-63
2023/11/04 11:43:29;;;;;;;4.50;2.45;;;;;;;;;;5049506;28;20347;-63
2023/11/04 11:45:55;;;;;;;4.80;2.50;;;;;;;;;;5048443;28;20370;-60
2023/11/04 11:48:22;;;;;;;4.15;2.25;;;;;;;;;;5033222;28;20013;-60
2023/11/04 11:50:48;;;;;;;3.13;2.33;;;;;;;;;;5043426;28;20040;-61
2023/11/04 11:53:15;;;;;;;2.28;1.52;;;;;;;;;;5040934;28;20025;-61
2023/11/04 11:55:41;;;;;;;5.25;2.15;;;;;;;;;;5041612;28;20045;-61
2023/11/04 11:58:07;;;;;;;3.40;2.40;;;;;;;;;;5042440;28;20102;-60
2023/11/04 12:00:36;;;;;;;6.00;3.15;;;;;;;;;;5036987;28;20107;-60
2023/11/04 12:03:02;;;;;;;6.68;2.83;;;;;;;;;;5044125;28;20071;-61
2023/11/04 12:05:29;;;;;;;2.72;2.15;;;;;;;;;;5044914;28;20498;-60
2023/11/04 12:07:55;;;;;;;2.95;1.98;;;;;;;;;;5044456;28;20030;-60
2023/11/04 12:10:22;;;;;;;2.42;2.22;;;;;;;;;;5042843;28;20104;-61
2023/11/04 12:12:49;;;;;;;2.88;1.77;;;;;;;;;;5036428;28;20036;-60
2023/11/04 12:15:15;;;;;;;2.03;1.80;;;;;;;;;;5035385;28;20390;-60
2023/11/04 12:17:41;;;;;;;3.58;2.05;;;;;;;;;;5035682;28;20518;-60
2023/11/04 12:20:11;;;;;;;10.10;4.25;;;;;;;;;;5051943;28;20031;-60
2023/11/04 12:22:37;;;;;;;3.60;1.92;;;;;;;;;;5050779;28;20129;-60
2023/11/04 12:25:05;;;;;;;5.95;2.65;;;;;;;;;;5050735;28;20049;-60
2023/11/04 12:27:31;;;;;;;4.95;1.83;;;;;;;;;;5050955;28;20032;-60
2023/11/04 12:29:58;;;;;;;3.88;2.13;;;;;;;;;;5051790;28;20091;-60
2023/11/04 12:32:25;;;;;;;3.88;1.95;;;;;;;;;;5051983;28;20185;-60
2023/11/04 12:34:58;;;;;;;3.92;2.05;;;;;;;;;;5051904;28;20017;-60
2023/11/04 12:37:27;;;;;;;2.15;1.95;;;;;;;;;;5046162;28;20175;-60
2023/11/04 12:39:54;;;;;;;4.72;2.75;;;;;;;;;;5046456;28;20416;-60
2023/11/04 12:42:20;;;;;;;5.40;3.08;;;;;;;;;;5051720;28;20033;-60
2023/11/04 12:44:49;;;;;;;4.22;3.83;;;;;;;;;;5051756;28;20014;-60
2023/11/04 12:47:15;;;;;;;3.63;2.90;;;;;;;;;;5051715;28;20039;-61
2023/11/04 12:49:41;;;;;;;3.20;2.88;;;;;;;;;;5051855;28;20025;-60
2023/11/04 12:52:07;;;;;;;4.55;3.60;;;;;;;;;;5050483;28;20025;-60
2023/11/04 12:54:34;;;;;;;5.60;3.33;;;;;;;;;;5049931;28;20706;-60
2023/11/04 12:57:01;;;;;;;6.10;3.00;;;;;;;;;;5044560;28;20078;-60
2023/11/04 12:59:27;;;;;;;4.88;2.88;;;;;;;;;;5051392;28;20504;-60
2023/11/04 13:01:53;;;;;;;2.67;2.47;;;;;;;;;;5051148;28;20041;-60
2023/11/04 13:04:19;;;;;;;2.92;2.63;;;;;;;;;;5051164;28;20051;-60
2023/11/04 13:06:45;;;;;;;5.78;3.17;;;;;;;;;;5051399;28;20025;-60
2023/11/04 13:09:11;;;;;;;2.35;2.15;;;;;;;;;;5051535;28;20032;-60
2023/11/04 13:11:37;;;;;;;3.42;2.38;;;;;;;;;;5046403;28;20036;-60
2023/11/04 13:14:03;;;;;;;4.10;2.70;;;;;;;;;;5042234;28;20017;-60
2023/11/04 13:16:34;;;;;;;2.92;2.53;;;;;;;;;;5051723;28;20082;-60
2023/11/04 13:19:01;;;;;;;3.58;2.60;;;;;;;;;;5051553;28;20152;-60
2023/11/04 13:21:27;;;;;;;3.35;2.28;;;;;;;;;;5051054;28;20056;-59
2023/11/04 13:23:53;;;;;;;2.75;2.03;;;;;;;;;;5053353;28;20090;-60
2023/11/04 13:26:19;;;;;;;3.05;2.33;;;;;;;;;;5053785;28;20359;-60
2023/11/04 13:28:45;;;;;;;3.88;2.75;;;;;;;;;;5055101;28;20032;-59
2023/11/04 13:31:11;;;;;;;3.72;2.50;;;;;;;;;;5055282;28;20438;-60
2023/11/04 13:33:37;;;;;;;3.38;2.40;;;;;;;;;;5055095;28;20378;-60
2023/11/04 13:36:03;;;;;;;2.88;2.35;;;;;;;;;;5055388;28;20037;-60
2023/11/04 13:38:29;;;;;;;3.65;2.95;;;;;;;;;;5052937;28;20021;-60
2023/11/04 13:40:55;;;;;;;3.05;2.55;;;;;;;;;;5042732;28;20049;-60
2023/11/04 13:43:22;;;;;;;3.10;2.30;;;;;;;;;;5049980;28;20101;-60
2023/11/04 13:45:48;;;;;;;4.28;2.63;;;;;;;;;;5050666;28;20052;-60
2023/11/04 13:48:16;;;;;;;5.68;2.15;;;;;;;;;;5054979;28;20044;-59
2023/11/04 13:50:42;;;;;;;4.53;2.42;;;;;;;;;;5054759;28;20017;-59
2023/11/04 13:53:08;;;;;;;3.08;2.75;;;;;;;;;;5054904;28;20423;-59
2023/11/04 13:55:34;;;;;;;5.07;3.03;;;;;;;;;;5054907;28;20103;-60
2023/11/04 13:57:59;;;;;;;2.50;2.30;;;;;;;;;;5054665;28;20035;-60
2023/11/04 14:00:25;;;;;;;3.53;2.08;;;;;;;;;;5054415;28;20449;-60
2023/11/04 14:02:51;;;;;;;3.20;2.45;;;;;;;;;;5053328;28;20029;-60
2023/11/04 14:05:17;;;;;;;2.33;2.08;;;;;;;;;;5054545;28;20486;-60
2023/11/04 14:07:43;;;;;;;4.97;2.55;;;;;;;;;;5054443;28;20037;-60
2023/11/04 14:10:11;;;;;;;2.38;1.88;;;;;;;;;;5054504;28;20021;-60
2023/11/04 14:12:37;;;;;;;3.25;1.85;;;;;;;;;;5054628;28;20055;-60
2023/11/04 14:15:03;;;;;;;3.58;1.70;;;;;;;;;;5054437;28;20021;-59
2023/11/04 14:17:29;;;;;;;2.47;2.15;;;;;;;;;;5054526;28;20053;-59
2023/11/04 14:19:55;;;;;;;3.03;2.50;;;;;;;;;;5054377;28;20068;-60
2023/11/04 14:22:21;;;;;;;2.28;1.90;;;;;;;;;;5054263;28;20037;-60
2023/11/04 14:24:47;;;;;;;4.00;2.05;;;;;;;;;;5054309;28;20082;-60
2023/11/04 14:27:14;;;;;;;4.13;2.25;;;;;;;;;;5054269;28;20028;-60
2023/11/04 14:29:40;;;;;;;4.00;2.55;;;;;;;;;;5039410;28;20493;-60
2023/11/04 14:32:07;;;;;;;2.80;2.50;;;;;;;;;;5040305;28;20369;-60
2023/11/04 14:34:33;;;;;;;2.75;2.40;;;;;;;;;;5040151;28;20071;-60
2023/11/04 14:36:59;;;;;;;2.70;2.22;;;;;;;;;;5053648;28;20037;-60
2023/11/04 14:39:25;;;;;;;5.53;2.80;;;;;;;;;;5053178;28;20114;-60
2023/11/04 14:41:53;;;;;;;6.75;3.25;;;;;;;;;;5047469;28;20053;-60
2023/11/04 14:44:20;;;;;;;5.15;2.88;;;;;;;;;;5044437;28;20048;-60